createdAt,value
2019-01-02T00:00:26.025Z,973.63
2019-01-02T00:01:25.999Z,973.64
2019-01-02T00:02:25.909Z,973.67
2019-01-02T00:03:25.850Z,973.65
2019-01-02T00:04:25.792Z,973.62
2019-01-02T00:05:25.733Z,973.67
2019-01-02T00:06:25.707Z,973.71
2019-01-02T00:07:25.621Z,973.73
2019-01-02T00:08:25.557Z,973.76
2019-01-02T00:09:25.500Z,973.72
2019-01-02T00:10:25.439Z,973.74
2019-01-02T00:11:25.423Z,973.80
2019-01-02T00:12:25.330Z,973.77
2019-01-02T00:13:25.262Z,973.80
2019-01-02T00:14:25.203Z,973.78
2019-01-02T00:15:25.146Z,973.73
2019-01-02T00:16:25.116Z,973.65
2019-01-02T00:17:25.027Z,973.66
2019-01-02T00:18:24.966Z,973.62
2019-01-02T00:19:24.942Z,973.63
2019-01-02T00:20:24.853Z,973.66
2019-01-02T00:21:24.791Z,973.62
2019-01-02T00:22:24.734Z,973.64
2019-01-02T00:23:24.676Z,973.65
2019-01-02T00:24:24.657Z,973.69
2019-01-02T00:25:24.556Z,973.65
2019-01-02T00:26:24.499Z,973.63
2019-01-02T00:27:24.441Z,973.52
2019-01-02T00:28:24.383Z,973.59
2019-01-02T00:29:24.348Z,973.66
2019-01-02T00:30:24.260Z,973.67
2019-01-02T00:31:24.227Z,973.71
2019-01-02T00:32:24.149Z,973.72
2019-01-02T00:33:24.086Z,973.73
2019-01-02T00:34:24.073Z,973.77
2019-01-02T00:35:23.970Z,973.74
2019-01-02T00:36:23.909Z,973.75
2019-01-02T00:37:23.852Z,973.76
2019-01-02T00:38:23.791Z,973.74
2019-01-02T00:39:23.764Z,973.70
2019-01-02T00:40:23.708Z,973.76
2019-01-02T00:41:23.612Z,973.75
2019-01-02T00:42:23.557Z,973.76
2019-01-02T00:43:23.501Z,973.72
2019-01-02T00:44:23.484Z,973.71
2019-01-02T00:45:23.730Z,973.73
2019-01-02T00:46:23.327Z,973.70
2019-01-02T00:47:23.259Z,973.65
2019-01-02T00:48:23.206Z,973.62
2019-01-02T00:49:23.179Z,973.62
2019-01-02T00:50:23.084Z,973.63
2019-01-02T00:51:23.029Z,973.60
2019-01-02T00:52:22.966Z,973.56
2019-01-02T00:53:22.942Z,973.63
2019-01-02T00:54:22.852Z,973.57
2019-01-02T00:55:22.791Z,973.61
2019-01-02T00:56:22.734Z,973.58
2019-01-02T00:57:22.700Z,973.65
2019-01-02T00:58:22.613Z,973.66
2019-01-02T00:59:22.587Z,973.67
2019-01-02T01:00:22.493Z,973.73
2019-01-02T01:01:22.436Z,973.87
2019-01-02T01:02:22.372Z,973.84
2019-01-02T01:03:22.321Z,973.87
2019-01-02T01:04:22.300Z,973.96
2019-01-02T01:05:22.213Z,973.95
2019-01-02T01:06:22.139Z,973.90
2019-01-02T01:07:22.095Z,973.89
2019-01-02T01:08:22.024Z,973.91
2019-01-02T01:09:22.004Z,973.89
2019-01-02T01:10:21.907Z,974.00
2019-01-02T01:11:21.884Z,974.02
2019-01-02T01:12:21.785Z,974.05
2019-01-02T01:13:21.728Z,974.03
2019-01-02T01:14:21.705Z,973.99
2019-01-02T01:15:21.607Z,974.06
2019-01-02T01:16:21.547Z,974.02
2019-01-02T01:17:21.490Z,974.06
2019-01-02T01:18:21.430Z,974.04
2019-01-02T01:19:21.405Z,974.04
2019-01-02T01:20:21.319Z,974.12
2019-01-02T01:21:21.253Z,974.14
2019-01-02T01:22:21.234Z,974.16
2019-01-02T01:23:21.136Z,974.15
2019-01-02T01:24:21.082Z,974.15
2019-01-02T01:25:21.024Z,974.15
2019-01-02T01:26:20.957Z,974.21
2019-01-02T01:27:20.938Z,974.23
2019-01-02T01:28:20.883Z,974.21
2019-01-02T01:29:20.781Z,974.23
2019-01-02T01:30:20.727Z,974.26
2019-01-02T01:31:20.668Z,974.23
2019-01-02T01:32:20.606Z,974.24
2019-01-02T01:33:20.575Z,974.26
2019-01-02T01:34:20.517Z,974.23
2019-01-02T01:35:20.428Z,974.25
2019-01-02T01:36:20.377Z,974.21
2019-01-02T01:37:20.311Z,974.19
2019-01-02T01:38:20.259Z,974.19
2019-01-02T01:39:20.224Z,974.17
2019-01-02T01:40:20.170Z,974.16
2019-01-02T01:41:20.077Z,974.16
2019-01-02T01:42:20.044Z,974.19
2019-01-02T01:43:19.961Z,974.24
2019-01-02T01:44:19.901Z,974.25
2019-01-02T01:45:19.882Z,974.22
2019-01-02T01:46:19.786Z,974.20
2019-01-02T01:47:19.719Z,974.20
2019-01-02T01:48:19.661Z,974.21
2019-01-02T01:49:19.601Z,974.23
2019-01-02T01:50:19.575Z,974.20
2019-01-02T01:51:19.487Z,974.16
2019-01-02T01:52:19.424Z,974.18
2019-01-02T01:53:19.367Z,974.19
2019-01-02T01:54:19.311Z,974.23
2019-01-02T01:55:19.286Z,974.25
2019-01-02T01:56:19.193Z,974.25
2019-01-02T01:57:19.134Z,974.25
2019-01-02T01:58:19.108Z,974.24
2019-01-02T01:59:19.010Z,974.20
2019-01-02T02:00:18.955Z,974.19
2019-01-02T02:01:18.893Z,974.25
2019-01-02T02:02:18.837Z,974.22
2019-01-02T02:03:18.808Z,974.25
2019-01-02T02:04:18.715Z,974.22
2019-01-02T02:05:18.657Z,974.18
2019-01-02T02:06:18.602Z,974.18
2019-01-02T02:07:18.546Z,974.16
2019-01-02T02:08:18.516Z,974.11
2019-01-02T02:09:18.429Z,974.09
2019-01-02T02:10:18.364Z,974.08
2019-01-02T02:11:18.302Z,974.11
2019-01-02T02:12:18.248Z,974.08
2019-01-02T02:13:18.225Z,974.09
2019-01-02T02:14:18.128Z,974.11
2019-01-02T02:15:18.068Z,974.13
2019-01-02T02:16:18.016Z,974.09
2019-01-02T02:17:17.950Z,974.09
2019-01-02T02:18:17.941Z,974.10
2019-01-02T02:19:17.833Z,974.13
2019-01-02T02:20:17.775Z,974.13
2019-01-02T02:21:17.721Z,974.18
2019-01-02T02:22:17.654Z,974.15
2019-01-02T02:23:17.629Z,974.12
2019-01-02T02:24:17.538Z,974.13
2019-01-02T02:25:17.479Z,974.08
2019-01-02T02:26:17.419Z,974.12
2019-01-02T02:27:17.363Z,974.11
2019-01-02T02:28:17.333Z,974.09
2019-01-02T02:29:17.256Z,974.09
2019-01-02T02:30:17.182Z,974.07
2019-01-02T02:31:17.155Z,974.08
2019-01-02T02:32:17.066Z,974.07
2019-01-02T02:33:17.039Z,974.02
2019-01-02T02:34:16.978Z,974.04
2019-01-02T02:35:16.894Z,973.98
2019-01-02T02:36:16.828Z,974.01
2019-01-02T02:37:16.768Z,974.03
2019-01-02T02:38:16.711Z,974.02
2019-01-02T02:39:16.684Z,974.04
2019-01-02T02:40:16.604Z,974.07
2019-01-02T02:41:16.534Z,974.04
2019-01-02T02:42:16.477Z,974.00
2019-01-02T02:43:16.454Z,974.02
2019-01-02T02:44:16.356Z,974.07
2019-01-02T02:45:16.300Z,974.06
2019-01-02T02:46:16.267Z,974.12
2019-01-02T02:47:16.179Z,974.02
2019-01-02T02:48:16.121Z,974.05
2019-01-02T02:49:16.065Z,974.09
2019-01-02T02:50:16.002Z,974.08
2019-01-02T02:51:15.976Z,974.09
2019-01-02T02:52:15.895Z,974.04
2019-01-02T02:53:15.827Z,974.05
2019-01-02T02:54:15.806Z,974.07
2019-01-02T02:55:15.739Z,974.05
2019-01-02T02:56:15.671Z,974.00
2019-01-02T02:57:15.594Z,974.05
2019-01-02T02:58:15.556Z,974.12
2019-01-02T02:59:15.486Z,974.09
2019-01-02T03:00:15.418Z,974.08
2019-01-02T03:01:15.386Z,974.13
2019-01-02T03:02:15.294Z,974.08
2019-01-02T03:03:15.241Z,974.08
2019-01-02T03:04:15.175Z,974.12
2019-01-02T03:05:15.120Z,974.08
2019-01-02T03:06:15.105Z,974.05
2019-01-02T03:07:14.998Z,974.09
2019-01-02T03:08:14.940Z,974.13
2019-01-02T03:09:14.881Z,974.22
2019-01-02T03:10:14.823Z,974.15
2019-01-02T03:11:14.802Z,974.17
2019-01-02T03:12:14.706Z,974.14
2019-01-02T03:13:14.646Z,974.20
2019-01-02T03:14:14.617Z,974.28
2019-01-02T03:15:14.528Z,974.26
2019-01-02T03:16:14.468Z,974.29
2019-01-02T03:17:14.446Z,974.27
2019-01-02T03:18:14.347Z,974.26
2019-01-02T03:19:14.291Z,974.30
2019-01-02T03:20:14.236Z,974.31
2019-01-02T03:21:14.171Z,974.33
2019-01-02T03:22:14.152Z,974.36
2019-01-02T03:23:14.056Z,974.36
2019-01-02T03:24:13.998Z,974.37
2019-01-02T03:25:13.937Z,974.36
2019-01-02T03:26:13.911Z,974.39
2019-01-02T03:27:13.820Z,974.30
2019-01-02T03:28:13.766Z,974.34
2019-01-02T03:29:13.704Z,974.31
2019-01-02T03:30:13.681Z,974.31
2019-01-02T03:31:13.589Z,974.28
2019-01-02T03:32:13.526Z,974.25
2019-01-02T03:33:13.503Z,974.21
2019-01-02T03:34:13.406Z,974.24
2019-01-02T03:35:13.349Z,974.29
2019-01-02T03:36:13.320Z,974.32
2019-01-02T03:37:13.230Z,974.31
2019-01-02T03:38:13.177Z,974.31
2019-01-02T03:39:13.110Z,974.32
2019-01-02T03:40:13.086Z,974.40
2019-01-02T03:41:12.995Z,974.35
2019-01-02T03:42:12.939Z,974.39
2019-01-02T03:43:12.911Z,974.41
2019-01-02T03:44:12.818Z,974.41
2019-01-02T03:45:12.768Z,974.46
2019-01-02T03:46:12.697Z,974.43
2019-01-02T03:47:12.645Z,974.43
2019-01-02T03:48:12.615Z,974.48
2019-01-02T03:49:12.560Z,974.50
2019-01-02T03:50:12.464Z,974.53
2019-01-02T03:51:12.405Z,974.47
2019-01-02T03:52:12.348Z,974.49
2019-01-02T03:53:12.289Z,974.46
2019-01-02T03:54:12.354Z,974.54
2019-01-02T03:55:12.171Z,974.43
2019-01-02T03:56:12.112Z,974.46
2019-01-02T03:57:12.057Z,974.43
2019-01-02T03:58:11.993Z,974.41
2019-01-02T03:59:11.979Z,974.44
2019-01-02T04:00:11.878Z,974.40
2019-01-02T04:01:11.816Z,974.48
2019-01-02T04:02:11.759Z,974.47
2019-01-02T04:03:11.697Z,974.50
2019-01-02T04:04:11.679Z,974.54
2019-01-02T04:05:11.583Z,974.52
2019-01-02T04:06:11.526Z,974.55
2019-01-02T04:07:11.462Z,974.51
2019-01-02T04:08:11.406Z,974.55
2019-01-02T04:09:11.377Z,974.56
2019-01-02T04:10:11.286Z,974.59
2019-01-02T04:11:11.231Z,974.54
2019-01-02T04:12:11.169Z,974.61
2019-01-02T04:13:11.151Z,974.63
2019-01-02T04:14:11.055Z,974.68
2019-01-02T04:15:10.995Z,974.57
2019-01-02T04:16:10.935Z,974.63
2019-01-02T04:17:10.876Z,974.74
2019-01-02T04:18:10.866Z,974.76
2019-01-02T04:19:10.759Z,974.82
2019-01-02T04:20:10.698Z,974.73
2019-01-02T04:21:10.656Z,974.68
2019-01-02T04:22:10.579Z,974.67
2019-01-02T04:23:10.593Z,974.69
2019-01-02T04:24:10.464Z,974.72
2019-01-02T04:25:10.406Z,974.71
2019-01-02T04:26:10.342Z,974.76
2019-01-02T04:27:10.323Z,974.75
2019-01-02T04:28:10.231Z,974.76
2019-01-02T04:29:10.213Z,974.77
2019-01-02T04:30:10.171Z,974.78
2019-01-02T04:31:10.048Z,974.80
2019-01-02T04:32:10.454Z,974.88
2019-01-02T04:33:09.961Z,974.79
2019-01-02T04:34:09.882Z,974.77
2019-01-02T04:35:09.814Z,974.81
2019-01-02T04:36:09.790Z,974.75
2019-01-02T04:37:09.699Z,974.79
2019-01-02T04:38:09.643Z,974.73
2019-01-02T04:39:09.583Z,974.70
2019-01-02T04:40:10.390Z,974.71
2019-01-02T04:41:09.496Z,974.74
2019-01-02T04:42:09.403Z,974.72
2019-01-02T04:43:09.342Z,974.71
2019-01-02T04:44:09.286Z,974.72
2019-01-02T04:45:09.263Z,974.70
2019-01-02T04:46:09.165Z,974.74
2019-01-02T04:47:09.108Z,974.68
2019-01-02T04:48:09.049Z,974.70
2019-01-02T04:49:09.025Z,974.69
2019-01-02T04:50:08.930Z,974.76
2019-01-02T04:51:08.904Z,974.86
2019-01-02T04:52:08.812Z,974.92
2019-01-02T04:53:08.770Z,974.83
2019-01-02T04:54:08.694Z,974.87
2019-01-02T04:55:08.639Z,974.92
2019-01-02T04:56:08.615Z,974.90
2019-01-02T04:57:08.525Z,974.96
2019-01-02T04:58:08.462Z,974.99
2019-01-02T04:59:08.399Z,975.04
2019-01-02T05:00:08.347Z,975.02
2019-01-02T05:01:08.311Z,975.04
2019-01-02T05:02:08.265Z,975.09
2019-01-02T05:03:08.164Z,975.07
2019-01-02T05:04:08.106Z,975.08
2019-01-02T05:05:08.057Z,975.09
2019-01-02T05:06:07.987Z,975.09
2019-01-02T05:07:07.963Z,975.06
2019-01-02T05:08:07.901Z,975.10
2019-01-02T05:09:07.813Z,975.12
2019-01-02T05:10:07.772Z,975.13
2019-01-02T05:11:07.690Z,975.17
2019-01-02T05:12:07.636Z,975.18
2019-01-02T05:13:07.611Z,975.06
2019-01-02T05:14:07.522Z,975.10
2019-01-02T05:15:07.457Z,975.15
2019-01-02T05:16:07.397Z,975.24
2019-01-02T05:17:07.339Z,975.24
2019-01-02T05:18:07.312Z,975.23
2019-01-02T05:19:07.219Z,975.20
2019-01-02T05:20:07.164Z,975.25
2019-01-02T05:21:07.104Z,975.28
2019-01-02T05:22:07.058Z,975.22
2019-01-02T05:23:07.016Z,975.22
2019-01-02T05:24:06.931Z,975.28
2019-01-02T05:25:06.865Z,975.27
2019-01-02T05:26:06.841Z,975.28
2019-01-02T05:27:06.759Z,975.33
2019-01-02T05:28:06.735Z,975.34
2019-01-02T05:29:06.636Z,975.31
2019-01-02T05:30:06.572Z,975.33
2019-01-02T05:31:06.521Z,975.34
2019-01-02T05:32:06.456Z,975.31
2019-01-02T05:33:06.436Z,975.30
2019-01-02T05:34:06.337Z,975.33
2019-01-02T05:35:06.278Z,975.32
2019-01-02T05:36:06.217Z,975.35
2019-01-02T05:37:06.158Z,975.34
2019-01-02T05:38:06.136Z,975.30
2019-01-02T05:39:06.039Z,975.28
2019-01-02T05:40:05.982Z,975.35
2019-01-02T05:41:05.927Z,975.38
2019-01-02T05:42:05.859Z,975.40
2019-01-02T05:43:05.836Z,975.39
2019-01-02T05:44:05.746Z,975.43
2019-01-02T05:45:05.686Z,975.46
2019-01-02T05:46:05.631Z,975.43
2019-01-02T05:47:05.566Z,975.45
2019-01-02T05:48:05.540Z,975.51
2019-01-02T05:49:05.447Z,975.50
2019-01-02T05:50:05.406Z,975.46
2019-01-02T05:51:05.405Z,975.46
2019-01-02T05:52:05.278Z,975.48
2019-01-02T05:53:05.221Z,975.53
2019-01-02T05:54:05.221Z,975.53
2019-01-02T05:55:05.098Z,975.54
2019-01-02T05:56:05.037Z,975.49
2019-01-02T05:57:04.993Z,975.49
2019-01-02T05:58:04.920Z,975.54
2019-01-02T05:59:04.892Z,975.61
2019-01-02T06:00:04.807Z,975.55
2019-01-02T06:01:04.741Z,975.56
2019-01-02T06:02:04.682Z,975.57
2019-01-02T06:03:04.622Z,975.51
2019-01-02T06:04:04.603Z,975.53
2019-01-02T06:05:04.505Z,975.54
2019-01-02T06:06:04.446Z,975.55
2019-01-02T06:07:04.407Z,975.56
2019-01-02T06:08:04.324Z,975.54
2019-01-02T06:09:04.299Z,975.54
2019-01-02T06:10:04.212Z,975.53
2019-01-02T06:11:04.150Z,975.53
2019-01-02T06:12:04.092Z,975.50
2019-01-02T06:13:04.063Z,975.48
2019-01-02T06:14:03.977Z,975.47
2019-01-02T06:15:03.921Z,975.49
2019-01-02T06:16:03.852Z,975.49
2019-01-02T06:17:03.829Z,975.49
2019-01-02T06:18:03.736Z,975.54
2019-01-02T06:19:03.675Z,975.57
2019-01-02T06:20:03.617Z,975.54
2019-01-02T06:21:03.602Z,975.57
2019-01-02T06:22:03.500Z,975.62
2019-01-02T06:23:03.443Z,975.63
2019-01-02T06:24:03.381Z,975.65
2019-01-02T06:25:03.323Z,975.65
2019-01-02T06:26:03.295Z,975.71
2019-01-02T06:27:03.207Z,975.72
2019-01-02T06:28:03.143Z,975.67
2019-01-02T06:29:03.128Z,975.69
2019-01-02T06:30:03.027Z,975.67
2019-01-02T06:31:02.968Z,975.62
2019-01-02T06:32:02.911Z,975.67
2019-01-02T06:33:02.851Z,975.68
2019-01-02T06:34:02.841Z,975.67
2019-01-02T06:35:02.731Z,975.66
2019-01-02T06:36:02.673Z,975.68
2019-01-02T06:37:02.621Z,975.65
2019-01-02T06:38:02.593Z,975.70
2019-01-02T06:39:02.495Z,975.73
2019-01-02T06:40:02.436Z,975.77
2019-01-02T06:41:02.381Z,975.75
2019-01-02T06:42:02.318Z,975.77
2019-01-02T06:43:02.303Z,975.79
2019-01-02T06:44:02.200Z,975.76
2019-01-02T06:45:02.141Z,975.81
2019-01-02T06:46:02.086Z,975.83
2019-01-02T06:47:02.024Z,975.75
2019-01-02T06:48:02.004Z,975.75
2019-01-02T06:49:01.906Z,975.84
2019-01-02T06:50:01.848Z,975.88
2019-01-02T06:51:01.787Z,975.93
2019-01-02T06:52:01.741Z,975.90
2019-01-02T06:53:01.701Z,975.85
2019-01-02T06:54:01.617Z,975.84
2019-01-02T06:55:01.590Z,975.87
2019-01-02T06:56:01.497Z,975.89
2019-01-02T06:57:01.434Z,975.92
2019-01-02T06:58:01.374Z,975.93
2019-01-02T06:59:01.315Z,975.94
2019-01-02T07:00:01.300Z,975.94
2019-01-02T07:01:01.199Z,975.91
2019-01-02T07:02:01.140Z,975.92
2019-01-02T07:03:01.087Z,975.92
2019-01-02T07:04:01.024Z,975.92
2019-01-02T07:05:01.011Z,975.96
2019-01-02T07:06:00.940Z,975.94
2019-01-02T07:07:00.844Z,975.97
2019-01-02T07:08:00.789Z,975.94
2019-01-02T07:09:00.725Z,975.97
2019-01-02T07:10:00.668Z,976.01
2019-01-02T07:11:00.636Z,976.02
2019-01-02T07:12:00.548Z,976.04
2019-01-02T07:13:00.488Z,976.01
2019-01-02T07:14:01.047Z,976.03
2019-01-02T07:15:00.381Z,976.04
2019-01-02T07:16:00.359Z,976.05
2019-01-02T07:17:00.291Z,976.06
2019-01-02T07:18:00.197Z,976.09
2019-01-02T07:19:00.134Z,976.13
2019-01-02T07:20:00.094Z,976.18
2019-01-02T07:21:00.021Z,976.19
2019-01-02T07:21:59.988Z,976.13
2019-01-02T07:22:59.907Z,976.17
2019-01-02T07:23:59.839Z,976.19
2019-01-02T07:24:59.812Z,976.22
2019-01-02T07:25:59.722Z,976.27
2019-01-02T07:26:59.663Z,976.19
2019-01-02T07:27:59.635Z,976.21
2019-01-02T07:28:59.557Z,976.14
2019-01-02T07:29:59.482Z,976.18
2019-01-02T07:30:59.456Z,976.22
2019-01-02T07:31:59.367Z,976.27
2019-01-02T07:32:59.319Z,976.28
2019-01-02T07:33:59.282Z,976.33
2019-01-02T07:34:59.189Z,976.29
2019-01-02T07:35:59.166Z,976.29
2019-01-02T07:36:59.071Z,976.31
2019-01-02T07:37:59.011Z,976.31
2019-01-02T07:38:58.960Z,976.32
2019-01-02T07:39:58.894Z,976.35
2019-01-02T07:40:58.876Z,976.40
2019-01-02T07:41:58.776Z,976.38
2019-01-02T07:42:58.767Z,976.41
2019-01-02T07:43:58.660Z,976.39
2019-01-02T07:44:58.599Z,976.44
2019-01-02T07:45:58.588Z,976.45
2019-01-02T07:46:58.481Z,976.37
2019-01-02T07:47:58.422Z,976.38
2019-01-02T07:48:58.363Z,976.40
2019-01-02T07:49:58.308Z,976.44
2019-01-02T07:51:00.380Z,976.48
2019-01-02T07:51:58.219Z,976.44
2019-01-02T07:52:58.127Z,976.44
2019-01-02T07:53:58.066Z,976.43
2019-01-02T07:54:58.007Z,976.43
2019-01-02T07:55:57.950Z,976.41
2019-01-02T07:56:57.931Z,976.41
2019-01-02T07:57:57.829Z,976.40
2019-01-02T07:58:57.774Z,976.41
2019-01-02T07:59:57.720Z,976.44
2019-01-02T08:00:57.666Z,976.44
2019-01-02T08:01:57.629Z,976.44
2019-01-02T08:02:57.535Z,976.44
2019-01-02T08:03:57.477Z,976.48
2019-01-02T08:04:57.423Z,976.48
2019-01-02T08:05:57.359Z,976.47
2019-01-02T08:06:57.335Z,976.50
2019-01-02T08:07:57.242Z,976.48
2019-01-02T08:08:57.219Z,976.47
2019-01-02T08:09:57.123Z,976.43
2019-01-02T08:10:57.067Z,976.48
2019-01-02T08:11:57.005Z,976.45
2019-01-02T08:12:56.950Z,976.39
2019-01-02T08:13:56.922Z,976.36
2019-01-02T08:15:02.820Z,976.39
2019-01-02T08:15:56.769Z,976.39
2019-01-02T08:16:56.711Z,976.44
2019-01-02T08:17:56.694Z,976.38
2019-01-02T08:18:56.599Z,976.43
2019-01-02T08:19:56.536Z,976.38
2019-01-02T08:20:56.482Z,976.38
2019-01-02T08:21:56.421Z,976.39
2019-01-02T08:22:56.397Z,976.41
2019-01-02T08:23:56.302Z,976.42
2019-01-02T08:24:56.242Z,976.42
2019-01-02T08:25:56.182Z,976.44
2019-01-02T08:26:56.122Z,976.40
2019-01-02T08:27:56.098Z,976.43
2019-01-02T08:28:56.005Z,976.49
2019-01-02T08:29:55.994Z,976.51
2019-01-02T08:30:55.889Z,976.50
2019-01-02T08:31:55.828Z,976.55
2019-01-02T08:32:55.771Z,976.57
2019-01-02T08:33:55.712Z,976.55
2019-01-02T08:34:55.688Z,976.59
2019-01-02T08:35:55.592Z,976.58
2019-01-02T08:36:55.541Z,976.55
2019-01-02T08:37:55.486Z,976.53
2019-01-02T08:38:55.417Z,976.51
2019-01-02T08:39:55.398Z,976.46
2019-01-02T08:40:55.302Z,976.49
2019-01-02T08:41:55.243Z,976.51
2019-01-02T08:42:55.185Z,976.59
2019-01-02T08:43:55.124Z,976.55
2019-01-02T08:44:55.110Z,976.54
2019-01-02T08:45:55.009Z,976.56
2019-01-02T08:46:54.946Z,976.58
2019-01-02T08:47:54.890Z,976.56
2019-01-02T08:48:54.838Z,976.58
2019-01-02T08:49:54.806Z,976.62
2019-01-02T08:50:54.712Z,976.66
2019-01-02T08:51:54.654Z,976.62
2019-01-02T08:52:54.593Z,976.58
2019-01-02T08:53:54.535Z,976.57
2019-01-02T08:54:54.523Z,976.54
2019-01-02T08:55:54.419Z,976.55
2019-01-02T08:56:54.359Z,976.53
2019-01-02T08:57:54.300Z,976.55
2019-01-02T08:58:54.245Z,976.55
2019-01-02T08:59:54.213Z,976.55
2019-01-02T09:00:54.157Z,976.52
2019-01-02T09:01:54.067Z,976.58
2019-01-02T09:02:54.010Z,976.57
2019-01-02T09:03:53.947Z,976.60
2019-01-02T09:04:53.891Z,976.63
2019-01-02T09:05:53.867Z,976.57
2019-01-02T09:06:53.769Z,976.57
2019-01-02T09:07:53.714Z,976.57
2019-01-02T09:08:53.652Z,976.55
2019-01-02T09:09:53.595Z,976.48
2019-01-02T09:10:53.564Z,976.53
2019-01-02T09:11:53.481Z,976.54
2019-01-02T09:12:53.423Z,976.56
2019-01-02T09:13:53.356Z,976.65
2019-01-02T09:14:53.331Z,976.63
2019-01-02T09:15:53.239Z,976.60
2019-01-02T09:16:53.212Z,976.58
2019-01-02T09:17:53.123Z,976.68
2019-01-02T09:18:53.065Z,976.69
2019-01-02T09:19:53.035Z,976.69
2019-01-02T09:20:52.947Z,976.66
2019-01-02T09:21:52.922Z,976.69
2019-01-02T09:22:52.827Z,976.62
2019-01-02T09:23:52.803Z,976.64
2019-01-02T09:24:52.708Z,976.67
2019-01-02T09:25:52.649Z,976.65
2019-01-02T09:26:52.593Z,976.68
2019-01-02T09:27:52.531Z,976.63
2019-01-02T09:28:52.505Z,976.61
2019-01-02T09:29:52.416Z,976.67
2019-01-02T09:30:52.363Z,976.66
2019-01-02T09:31:52.303Z,976.63
2019-01-02T09:32:52.237Z,976.64
2019-01-02T09:33:52.373Z,976.70
2019-01-02T09:34:52.118Z,976.64
2019-01-02T09:35:52.078Z,976.64
2019-01-02T09:36:52.001Z,976.58
2019-01-02T09:37:51.944Z,976.67
2019-01-02T09:38:51.914Z,976.68
2019-01-02T09:39:51.826Z,976.69
2019-01-02T09:40:51.804Z,976.75
2019-01-02T09:41:51.710Z,976.73
2019-01-02T09:42:51.682Z,976.82
2019-01-02T09:43:51.589Z,976.96
2019-01-02T09:44:51.529Z,977.08
2019-01-02T09:45:51.506Z,977.18
2019-01-02T09:46:51.414Z,977.18
2019-01-02T09:47:51.370Z,977.24
2019-01-02T09:48:51.330Z,977.31
2019-01-02T09:49:51.234Z,977.30
2019-01-02T09:50:51.181Z,977.31
2019-01-02T09:51:51.146Z,977.33
2019-01-02T09:52:51.061Z,977.37
2019-01-02T09:53:51.001Z,977.32
2019-01-02T09:54:50.943Z,977.36
2019-01-02T09:55:50.917Z,977.39
2019-01-02T09:56:50.823Z,977.43
2019-01-02T09:57:50.768Z,977.39
2019-01-02T09:58:50.714Z,977.29
2019-01-02T09:59:50.682Z,977.28
2019-01-02T10:00:50.588Z,977.23
2019-01-02T10:01:50.534Z,977.28
2019-01-02T10:02:50.474Z,977.32
2019-01-02T10:03:50.411Z,977.28
2019-01-02T10:04:50.409Z,977.21
2019-01-02T10:05:50.293Z,977.19
2019-01-02T10:06:50.234Z,977.18
2019-01-02T10:07:50.179Z,977.20
2019-01-02T10:08:50.117Z,977.14
2019-01-02T10:09:50.100Z,977.19
2019-01-02T10:10:50.005Z,977.22
2019-01-02T10:11:49.950Z,977.26
2019-01-02T10:12:49.884Z,977.18
2019-01-02T10:13:49.823Z,977.15
2019-01-02T10:14:49.812Z,977.25
2019-01-02T10:15:49.741Z,977.22
2019-01-02T10:16:49.648Z,977.15
2019-01-02T10:17:49.589Z,977.19
2019-01-02T10:18:49.535Z,977.80
2019-01-02T10:19:49.479Z,977.61
2019-01-02T10:20:49.447Z,977.28
2019-01-02T10:21:49.359Z,977.48
2019-01-02T10:22:49.336Z,977.83
2019-01-02T10:23:49.241Z,977.90
2019-01-02T10:24:49.193Z,978.03
2019-01-02T10:25:49.153Z,978.13
2019-01-02T10:26:49.118Z,977.63
2019-01-02T10:27:49.015Z,977.67
2019-01-02T10:28:48.956Z,977.37
2019-01-02T10:29:48.899Z,977.35
2019-01-02T10:30:48.839Z,977.32
2019-01-02T10:31:48.814Z,977.55
2019-01-02T10:32:48.730Z,977.59
2019-01-02T10:33:48.672Z,977.31
2019-01-02T10:34:48.631Z,977.33
2019-01-02T10:35:48.560Z,977.33
2019-01-02T10:36:48.538Z,977.34
2019-01-02T10:37:48.449Z,977.35
2019-01-02T10:38:48.393Z,977.35
2019-01-02T10:39:48.337Z,977.39
2019-01-02T10:40:48.292Z,977.45
2019-01-02T10:41:48.254Z,977.45
2019-01-02T10:42:48.170Z,977.44
2019-01-02T10:43:48.146Z,977.66
2019-01-02T10:44:48.058Z,977.77
2019-01-02T10:45:48.009Z,978.21
2019-01-02T10:46:47.942Z,977.85
2019-01-02T10:47:47.898Z,978.25
2019-01-02T10:48:47.867Z,978.30
2019-01-02T10:49:47.775Z,978.21
2019-01-02T10:50:47.720Z,978.16
2019-01-02T10:51:47.674Z,977.54
2019-01-02T10:52:47.650Z,977.55
2019-01-02T10:53:47.561Z,977.54
2019-01-02T10:54:47.505Z,978.20
2019-01-02T10:55:47.484Z,978.19
2019-01-02T10:56:47.406Z,978.01
2019-01-02T10:57:47.348Z,977.99
2019-01-02T10:58:47.326Z,977.61
2019-01-02T10:59:47.245Z,977.74
2019-01-02T11:00:47.232Z,977.64
2019-01-02T11:01:47.137Z,977.60
2019-01-02T11:02:47.086Z,977.62
2019-01-02T11:03:47.032Z,977.65
2019-01-02T11:04:46.982Z,977.53
2019-01-02T11:05:46.989Z,977.54
2019-01-02T11:06:46.881Z,977.46
2019-01-02T11:07:46.830Z,977.50
2019-01-02T11:08:46.771Z,977.46
2019-01-02T11:09:46.726Z,977.52
2019-01-02T11:10:46.709Z,977.63
2019-01-02T11:11:46.621Z,977.63
2019-01-02T11:12:46.568Z,977.74
2019-01-02T11:13:46.510Z,977.59
2019-01-02T11:14:46.458Z,977.66
2019-01-02T11:15:46.450Z,977.60
2019-01-02T11:16:46.359Z,977.68
2019-01-02T11:17:46.301Z,977.58
2019-01-02T11:18:46.252Z,977.59
2019-01-02T11:19:46.199Z,977.70
2019-01-02T11:20:46.184Z,977.62
2019-01-02T11:21:46.124Z,977.42
2019-01-02T11:22:46.040Z,977.56
2019-01-02T11:23:45.989Z,977.69
2019-01-02T11:24:45.940Z,977.68
2019-01-02T11:25:45.884Z,977.49
2019-01-02T11:26:45.855Z,977.45
2019-01-02T11:27:45.783Z,977.41
2019-01-02T11:28:45.733Z,977.40
2019-01-02T11:29:45.675Z,977.45
2019-01-02T11:30:45.622Z,977.40
2019-01-02T11:31:45.611Z,977.40
2019-01-02T11:32:45.521Z,977.32
2019-01-02T11:33:45.471Z,977.37
2019-01-02T11:34:45.453Z,977.33
2019-01-02T11:35:45.367Z,977.41
2019-01-02T11:36:45.314Z,977.65
2019-01-02T11:37:45.261Z,977.49
2019-01-02T11:38:45.216Z,977.62
2019-01-02T11:39:45.186Z,977.66
2019-01-02T11:40:45.106Z,977.66
2019-01-02T11:41:45.050Z,977.68
2019-01-02T11:42:45.025Z,977.70
2019-01-02T11:43:44.941Z,977.67
2019-01-02T11:44:44.887Z,977.55
2019-01-02T11:45:44.840Z,977.59
2019-01-02T11:46:44.787Z,977.73
2019-01-02T11:47:44.764Z,977.71
2019-01-02T11:48:44.676Z,977.71
2019-01-02T11:49:44.629Z,977.67
2019-01-02T11:50:44.573Z,977.47
2019-01-02T11:51:44.520Z,977.45
2019-01-02T11:52:44.495Z,977.46
2019-01-02T11:53:44.413Z,977.65
2019-01-02T11:54:44.360Z,977.69
2019-01-02T11:55:44.309Z,977.51
2019-01-02T11:56:44.288Z,977.69
2019-01-02T11:57:44.200Z,977.61
2019-01-02T11:58:49.813Z,977.64
2019-01-02T11:59:44.131Z,977.40
2019-01-02T12:00:44.042Z,977.49
2019-01-02T12:01:43.990Z,977.59
2019-01-02T12:02:43.939Z,977.55
2019-01-02T12:03:43.928Z,977.47
2019-01-02T12:04:43.904Z,977.45
2019-01-02T12:05:43.784Z,977.52
2019-01-02T12:06:43.726Z,977.50
2019-01-02T12:07:43.674Z,977.53
2019-01-02T12:08:43.620Z,977.56
2019-01-02T12:09:43.597Z,977.40
2019-01-02T12:10:43.515Z,977.42
2019-01-02T12:11:43.468Z,977.41
2019-01-02T12:12:43.423Z,977.56
2019-01-02T12:13:43.387Z,977.47
2019-01-02T12:14:43.309Z,977.61
2019-01-02T12:15:43.266Z,977.60
2019-01-02T12:16:43.228Z,977.58
2019-01-02T12:17:43.149Z,977.43
2019-01-02T12:18:43.137Z,977.59
2019-01-02T12:19:43.044Z,977.61
2019-01-02T12:20:43.019Z,977.59
2019-01-02T12:21:42.939Z,977.60
2019-01-02T12:22:42.894Z,977.54
2019-01-02T12:23:42.864Z,977.60
2019-01-02T12:24:42.772Z,977.47
2019-01-02T12:25:42.721Z,977.60
2019-01-02T12:26:42.701Z,977.56
2019-01-02T12:27:42.618Z,977.60